sensor_id;sensor_type;location;lat;lon;timestamp;P1;durP1;ratioP1;P2;durP2;ratioP2
19384;SDS011;9828;54.122;17.974;2022-11-12T00:04:40;9.00;;;6.67;;
19384;SDS011;9828;54.122;17.974;2022-11-12T00:10:21;9.37;;;7.10;;
19384;SDS011;9828;54.122;17.974;2022-11-12T00:16:01;10.03;;;6.77;;
19384;SDS011;9828;54.122;17.974;2022-11-12T00:21:43;10.23;;;6.50;;
19384;SDS011;9828;54.122;17.974;2022-11-12T00:27:23;9.00;;;6.50;;
19384;SDS011;9828;54.122;17.974;2022-11-12T00:33:04;10.37;;;6.37;;
19384;SDS011;9828;54.122;17.974;2022-11-12T00:38:44;12.43;;;6.93;;
19384;SDS011;9828;54.122;17.974;2022-11-12T00:44:24;8.77;;;6.87;;
19384;SDS011;9828;54.122;17.974;2022-11-12T00:50:06;10.73;;;6.43;;
19384;SDS011;9828;54.122;17.974;2022-11-12T00:55:46;10.47;;;6.30;;
19384;SDS011;9828;54.122;17.974;2022-11-12T01:01:26;10.03;;;6.63;;
19384;SDS011;9828;54.122;17.974;2022-11-12T01:07:07;10.00;;;6.30;;
19384;SDS011;9828;54.122;17.974;2022-11-12T01:12:47;11.10;;;6.07;;
19384;SDS011;9828;54.122;17.974;2022-11-12T01:18:27;12.87;;;6.37;;
19384;SDS011;9828;54.122;17.974;2022-11-12T01:24:07;12.43;;;6.40;;
19384;SDS011;9828;54.122;17.974;2022-11-12T01:29:48;12.43;;;6.07;;
19384;SDS011;9828;54.122;17.974;2022-11-12T01:35:28;10.67;;;5.53;;
19384;SDS011;9828;54.122;17.974;2022-11-12T01:41:09;8.23;;;5.60;;
19384;SDS011;9828;54.122;17.974;2022-11-12T01:52:47;10.43;;;5.40;;
19384;SDS011;9828;54.122;17.974;2022-11-12T01:58:31;14.30;;;6.03;;
19384;SDS011;9828;54.122;17.974;2022-11-12T02:04:14;11.73;;;5.63;;
19384;SDS011;9828;54.122;17.974;2022-11-12T02:09:55;13.17;;;5.63;;
19384;SDS011;9828;54.122;17.974;2022-11-12T02:15:35;11.10;;;4.90;;
19384;SDS011;9828;54.122;17.974;2022-11-12T02:21:17;9.60;;;5.30;;
19384;SDS011;9828;54.122;17.974;2022-11-12T02:26:58;11.70;;;5.50;;
19384;SDS011;9828;54.122;17.974;2022-11-12T02:32:39;7.80;;;4.97;;
19384;SDS011;9828;54.122;17.974;2022-11-12T02:38:19;13.17;;;5.03;;
19384;SDS011;9828;54.122;17.974;2022-11-12T02:43:59;11.10;;;5.00;;
19384;SDS011;9828;54.122;17.974;2022-11-12T02:49:39;10.03;;;5.07;;
19384;SDS011;9828;54.122;17.974;2022-11-12T02:55:18;10.20;;;4.90;;
19384;SDS011;9828;54.122;17.974;2022-11-12T03:00:59;8.43;;;4.97;;
19384;SDS011;9828;54.122;17.974;2022-11-12T03:06:39;9.33;;;4.90;;
19384;SDS011;9828;54.122;17.974;2022-11-12T03:12:18;7.40;;;4.97;;
19384;SDS011;9828;54.122;17.974;2022-11-12T03:17:58;11.10;;;4.60;;
19384;SDS011;9828;54.122;17.974;2022-11-12T03:23:39;10.87;;;4.57;;
19384;SDS011;9828;54.122;17.974;2022-11-12T03:29:19;13.30;;;5.13;;
19384;SDS011;9828;54.122;17.974;2022-11-12T03:34:59;9.00;;;5.17;;
19384;SDS011;9828;54.122;17.974;2022-11-12T03:40:39;19.33;;;5.77;;
19384;SDS011;9828;54.122;17.974;2022-11-12T03:46:19;13.33;;;5.50;;
19384;SDS011;9828;54.122;17.974;2022-11-12T03:51:59;11.93;;;5.50;;
19384;SDS011;9828;54.122;17.974;2022-11-12T03:57:39;10.87;;;5.27;;
19384;SDS011;9828;54.122;17.974;2022-11-12T04:03:19;13.07;;;6.60;;
19384;SDS011;9828;54.122;17.974;2022-11-12T04:08:59;12.07;;;5.60;;
19384;SDS011;9828;54.122;17.974;2022-11-12T04:14:39;10.40;;;5.40;;
19384;SDS011;9828;54.122;17.974;2022-11-12T04:20:19;12.10;;;5.00;;
19384;SDS011;9828;54.122;17.974;2022-11-12T04:26:17;11.27;;;5.67;;
19384;SDS011;9828;54.122;17.974;2022-11-12T04:32:03;21.97;;;6.10;;
19384;SDS011;9828;54.122;17.974;2022-11-12T04:37:43;15.10;;;5.40;;
19384;SDS011;9828;54.122;17.974;2022-11-12T04:43:24;15.70;;;5.93;;
19384;SDS011;9828;54.122;17.974;2022-11-12T04:49:22;9.87;;;5.30;;
19384;SDS011;9828;54.122;17.974;2022-11-12T04:55:02;17.83;;;5.60;;
19384;SDS011;9828;54.122;17.974;2022-11-12T05:00:43;11.50;;;5.10;;
19384;SDS011;9828;54.122;17.974;2022-11-12T05:06:23;11.17;;;5.07;;
19384;SDS011;9828;54.122;17.974;2022-11-12T05:12:22;12.77;;;4.90;;
19384;SDS011;9828;54.122;17.974;2022-11-12T05:18:01;13.40;;;5.37;;
19384;SDS011;9828;54.122;17.974;2022-11-12T05:23:41;15.80;;;4.80;;
19384;SDS011;9828;54.122;17.974;2022-11-12T05:29:21;14.10;;;4.77;;
19384;SDS011;9828;54.122;17.974;2022-11-12T05:35:03;9.90;;;4.60;;
19384;SDS011;9828;54.122;17.974;2022-11-12T05:40:48;16.90;;;6.00;;
19384;SDS011;9828;54.122;17.974;2022-11-12T05:46:28;15.20;;;5.20;;
19384;SDS011;9828;54.122;17.974;2022-11-12T05:52:09;10.20;;;5.13;;
19384;SDS011;9828;54.122;17.974;2022-11-12T05:57:48;12.87;;;5.20;;
19384;SDS011;9828;54.122;17.974;2022-11-12T06:03:28;11.00;;;4.33;;
19384;SDS011;9828;54.122;17.974;2022-11-12T06:09:08;11.17;;;4.00;;
19384;SDS011;9828;54.122;17.974;2022-11-12T06:14:48;11.37;;;5.80;;
19384;SDS011;9828;54.122;17.974;2022-11-12T06:20:28;9.23;;;5.10;;
19384;SDS011;9828;54.122;17.974;2022-11-12T06:26:09;10.10;;;4.93;;
19384;SDS011;9828;54.122;17.974;2022-11-12T06:31:48;9.23;;;4.73;;
19384;SDS011;9828;54.122;17.974;2022-11-12T06:37:30;8.57;;;4.37;;
19384;SDS011;9828;54.122;17.974;2022-11-12T06:43:10;12.27;;;4.53;;
19384;SDS011;9828;54.122;17.974;2022-11-12T06:48:50;10.60;;;4.60;;
19384;SDS011;9828;54.122;17.974;2022-11-12T06:54:31;7.10;;;3.50;;
19384;SDS011;9828;54.122;17.974;2022-11-12T07:00:11;8.97;;;3.80;;
19384;SDS011;9828;54.122;17.974;2022-11-12T07:05:51;8.77;;;3.80;;
19384;SDS011;9828;54.122;17.974;2022-11-12T07:11:31;8.73;;;3.47;;
19384;SDS011;9828;54.122;17.974;2022-11-12T07:17:11;5.60;;;3.10;;
19384;SDS011;9828;54.122;17.974;2022-11-12T07:22:51;6.17;;;3.07;;
19384;SDS011;9828;54.122;17.974;2022-11-12T07:28:31;6.10;;;2.93;;
19384;SDS011;9828;54.122;17.974;2022-11-12T07:34:11;8.07;;;3.40;;
19384;SDS011;9828;54.122;17.974;2022-11-12T07:39:52;8.67;;;4.40;;
19384;SDS011;9828;54.122;17.974;2022-11-12T07:45:32;9.67;;;4.17;;
19384;SDS011;9828;54.122;17.974;2022-11-12T07:51:12;9.27;;;4.10;;
19384;SDS011;9828;54.122;17.974;2022-11-12T07:56:54;6.60;;;3.43;;
19384;SDS011;9828;54.122;17.974;2022-11-12T08:02:34;7.60;;;3.40;;
19384;SDS011;9828;54.122;17.974;2022-11-12T08:08:15;10.03;;;3.70;;
19384;SDS011;9828;54.122;17.974;2022-11-12T08:13:55;8.50;;;4.00;;
19384;SDS011;9828;54.122;17.974;2022-11-12T08:19:35;6.77;;;3.57;;
19384;SDS011;9828;54.122;17.974;2022-11-12T08:25:15;8.80;;;3.60;;
19384;SDS011;9828;54.122;17.974;2022-11-12T08:30:54;5.90;;;3.40;;
19384;SDS011;9828;54.122;17.974;2022-11-12T08:36:35;5.63;;;3.20;;
19384;SDS011;9828;54.122;17.974;2022-11-12T08:42:14;7.73;;;3.60;;
19384;SDS011;9828;54.122;17.974;2022-11-12T08:48:01;5.47;;;3.07;;
19384;SDS011;9828;54.122;17.974;2022-11-12T08:53:49;13.43;;;3.80;;
19384;SDS011;9828;54.122;17.974;2022-11-12T08:59:30;9.37;;;4.40;;
19384;SDS011;9828;54.122;17.974;2022-11-12T09:05:10;8.43;;;4.57;;
19384;SDS011;9828;54.122;17.974;2022-11-12T09:10:50;9.83;;;4.10;;
19384;SDS011;9828;54.122;17.974;2022-11-12T09:16:30;7.53;;;4.17;;
19384;SDS011;9828;54.122;17.974;2022-11-12T09:22:10;13.13;;;5.87;;
19384;SDS011;9828;54.122;17.974;2022-11-12T09:27:50;12.53;;;4.70;;
19384;SDS011;9828;54.122;17.974;2022-11-12T09:33:31;6.97;;;4.10;;
19384;SDS011;9828;54.122;17.974;2022-11-12T09:39:12;7.90;;;3.73;;
19384;SDS011;9828;54.122;17.974;2022-11-12T09:45:00;6.87;;;4.40;;
19384;SDS011;9828;54.122;17.974;2022-11-12T09:50:57;10.07;;;4.83;;
19384;SDS011;9828;54.122;17.974;2022-11-12T09:56:42;8.17;;;5.07;;
19384;SDS011;9828;54.122;17.974;2022-11-12T10:14:27;10.60;;;4.97;;
19384;SDS011;9828;54.122;17.974;2022-11-12T10:20:37;11.17;;;4.63;;
19384;SDS011;9828;54.122;17.974;2022-11-12T10:26:23;10.03;;;5.40;;
19384;SDS011;9828;54.122;17.974;2022-11-12T10:32:04;9.17;;;4.33;;
19384;SDS011;9828;54.122;17.974;2022-11-12T10:38:04;13.77;;;4.57;;
19384;SDS011;9828;54.122;17.974;2022-11-12T10:43:54;10.27;;;4.50;;
19384;SDS011;9828;54.122;17.974;2022-11-12T10:49:35;13.57;;;4.97;;
19384;SDS011;9828;54.122;17.974;2022-11-12T11:01:01;11.47;;;4.97;;
19384;SDS011;9828;54.122;17.974;2022-11-12T11:06:43;11.83;;;5.10;;
19384;SDS011;9828;54.122;17.974;2022-11-12T11:12:27;9.60;;;4.83;;
19384;SDS011;9828;54.122;17.974;2022-11-12T11:18:12;9.67;;;5.03;;
19384;SDS011;9828;54.122;17.974;2022-11-12T11:29:54;9.97;;;4.83;;
19384;SDS011;9828;54.122;17.974;2022-11-12T11:53:46;15.80;;;5.97;;
19384;SDS011;9828;54.122;17.974;2022-11-12T12:11:28;13.90;;;6.60;;
19384;SDS011;9828;54.122;17.974;2022-11-12T12:41:21;14.67;;;5.40;;
19384;SDS011;9828;54.122;17.974;2022-11-12T12:47:08;17.57;;;5.07;;
19384;SDS011;9828;54.122;17.974;2022-11-12T12:58:56;9.33;;;5.03;;
19384;SDS011;9828;54.122;17.974;2022-11-12T13:04:52;15.33;;;4.83;;
19384;SDS011;9828;54.122;17.974;2022-11-12T13:28:18;10.37;;;6.10;;
19384;SDS011;9828;54.122;17.974;2022-11-12T13:34:10;12.27;;;5.73;;
19384;SDS011;9828;54.122;17.974;2022-11-12T13:40:01;13.63;;;5.83;;
19384;SDS011;9828;54.122;17.974;2022-11-12T13:45:56;13.40;;;6.23;;
19384;SDS011;9828;54.122;17.974;2022-11-12T13:51:40;17.00;;;7.67;;
19384;SDS011;9828;54.122;17.974;2022-11-12T13:57:27;16.07;;;6.50;;
19384;SDS011;9828;54.122;17.974;2022-11-12T14:03:13;12.77;;;5.30;;
19384;SDS011;9828;54.122;17.974;2022-11-12T14:15:01;12.97;;;5.27;;
19384;SDS011;9828;54.122;17.974;2022-11-12T14:20:54;8.70;;;4.53;;
19384;SDS011;9828;54.122;17.974;2022-11-12T14:26:38;9.30;;;4.77;;
19384;SDS011;9828;54.122;17.974;2022-11-12T14:32:20;10.43;;;4.63;;
19384;SDS011;9828;54.122;17.974;2022-11-12T14:38:17;8.10;;;4.77;;
19384;SDS011;9828;54.122;17.974;2022-11-12T14:44:02;10.57;;;5.37;;
19384;SDS011;9828;54.122;17.974;2022-11-12T14:49:50;8.63;;;5.63;;
19384;SDS011;9828;54.122;17.974;2022-11-12T14:55:31;17.30;;;5.87;;
19384;SDS011;9828;54.122;17.974;2022-11-12T15:01:33;11.63;;;6.33;;
19384;SDS011;9828;54.122;17.974;2022-11-12T15:07:58;8.33;;;6.20;;
19384;SDS011;9828;54.122;17.974;2022-11-12T15:13:43;14.97;;;9.30;;
19384;SDS011;9828;54.122;17.974;2022-11-12T15:19:24;11.50;;;7.53;;
19384;SDS011;9828;54.122;17.974;2022-11-12T15:31:06;12.33;;;7.87;;
19384;SDS011;9828;54.122;17.974;2022-11-12T15:36:55;13.87;;;8.20;;
19384;SDS011;9828;54.122;17.974;2022-11-12T15:42:37;11.20;;;7.40;;
19384;SDS011;9828;54.122;17.974;2022-11-12T15:48:20;13.50;;;10.07;;
19384;SDS011;9828;54.122;17.974;2022-11-12T15:54:00;17.93;;;10.43;;
19384;SDS011;9828;54.122;17.974;2022-11-12T15:59:40;16.47;;;9.97;;
19384;SDS011;9828;54.122;17.974;2022-11-12T16:05:21;13.33;;;9.40;;
19384;SDS011;9828;54.122;17.974;2022-11-12T16:11:01;13.50;;;9.30;;
19384;SDS011;9828;54.122;17.974;2022-11-12T16:16:41;12.20;;;9.40;;
19384;SDS011;9828;54.122;17.974;2022-11-12T16:22:21;14.40;;;9.47;;
19384;SDS011;9828;54.122;17.974;2022-11-12T16:28:01;13.53;;;8.50;;
19384;SDS011;9828;54.122;17.974;2022-11-12T16:33:43;13.37;;;9.30;;
19384;SDS011;9828;54.122;17.974;2022-11-12T16:39:23;21.87;;;12.73;;
19384;SDS011;9828;54.122;17.974;2022-11-12T16:45:03;19.40;;;12.87;;
19384;SDS011;9828;54.122;17.974;2022-11-12T16:50:44;15.47;;;10.53;;
19384;SDS011;9828;54.122;17.974;2022-11-12T16:56:24;18.07;;;12.03;;
19384;SDS011;9828;54.122;17.974;2022-11-12T17:02:09;14.03;;;8.87;;
19384;SDS011;9828;54.122;17.974;2022-11-12T17:07:54;11.47;;;8.53;;
19384;SDS011;9828;54.122;17.974;2022-11-12T17:13:36;13.10;;;9.47;;
19384;SDS011;9828;54.122;17.974;2022-11-12T17:19:17;11.00;;;8.13;;
19384;SDS011;9828;54.122;17.974;2022-11-12T17:24:57;15.43;;;9.13;;
19384;SDS011;9828;54.122;17.974;2022-11-12T17:30:37;15.87;;;11.37;;
19384;SDS011;9828;54.122;17.974;2022-11-12T17:36:21;15.27;;;9.10;;
19384;SDS011;9828;54.122;17.974;2022-11-12T17:42:02;13.57;;;9.97;;
19384;SDS011;9828;54.122;17.974;2022-11-12T17:47:42;13.50;;;9.50;;
19384;SDS011;9828;54.122;17.974;2022-11-12T17:53:22;17.87;;;10.27;;
19384;SDS011;9828;54.122;17.974;2022-11-12T17:59:02;13.93;;;9.13;;
19384;SDS011;9828;54.122;17.974;2022-11-12T18:04:43;14.03;;;9.70;;
19384;SDS011;9828;54.122;17.974;2022-11-12T18:10:23;18.73;;;10.70;;
19384;SDS011;9828;54.122;17.974;2022-11-12T18:22:05;15.50;;;10.13;;
19384;SDS011;9828;54.122;17.974;2022-11-12T18:27:45;14.73;;;10.73;;
19384;SDS011;9828;54.122;17.974;2022-11-12T18:33:27;12.57;;;10.17;;
19384;SDS011;9828;54.122;17.974;2022-11-12T18:39:08;13.47;;;10.50;;
19384;SDS011;9828;54.122;17.974;2022-11-12T18:44:48;13.87;;;10.27;;
19384;SDS011;9828;54.122;17.974;2022-11-12T18:50:29;16.83;;;9.50;;
19384;SDS011;9828;54.122;17.974;2022-11-12T18:56:13;13.23;;;9.97;;
19384;SDS011;9828;54.122;17.974;2022-11-12T19:01:55;10.60;;;8.00;;
19384;SDS011;9828;54.122;17.974;2022-11-12T19:07:36;14.03;;;9.73;;
19384;SDS011;9828;54.122;17.974;2022-11-12T19:13:16;14.67;;;9.33;;
19384;SDS011;9828;54.122;17.974;2022-11-12T19:18:57;12.73;;;8.73;;
19384;SDS011;9828;54.122;17.974;2022-11-12T19:24:37;9.33;;;7.03;;
19384;SDS011;9828;54.122;17.974;2022-11-12T19:30:17;8.00;;;6.50;;
19384;SDS011;9828;54.122;17.974;2022-11-12T19:36:03;10.50;;;6.33;;
19384;SDS011;9828;54.122;17.974;2022-11-12T19:41:46;8.93;;;5.63;;
19384;SDS011;9828;54.122;17.974;2022-11-12T19:47:26;7.93;;;6.40;;
19384;SDS011;9828;54.122;17.974;2022-11-12T19:53:06;10.50;;;6.63;;
19384;SDS011;9828;54.122;17.974;2022-11-12T19:58:46;9.40;;;7.00;;
19384;SDS011;9828;54.122;17.974;2022-11-12T20:04:27;8.93;;;7.00;;
19384;SDS011;9828;54.122;17.974;2022-11-12T20:10:07;9.13;;;6.00;;
19384;SDS011;9828;54.122;17.974;2022-11-12T20:15:48;8.00;;;6.70;;
19384;SDS011;9828;54.122;17.974;2022-11-12T20:21:28;9.93;;;7.93;;
19384;SDS011;9828;54.122;17.974;2022-11-12T20:27:09;10.07;;;7.57;;
19384;SDS011;9828;54.122;17.974;2022-11-12T20:32:50;10.63;;;7.60;;
19384;SDS011;9828;54.122;17.974;2022-11-12T20:38:30;13.80;;;7.77;;
19384;SDS011;9828;54.122;17.974;2022-11-12T20:44:10;10.07;;;7.47;;
19384;SDS011;9828;54.122;17.974;2022-11-12T20:49:52;9.07;;;6.50;;
19384;SDS011;9828;54.122;17.974;2022-11-12T20:55:31;9.40;;;7.73;;
19384;SDS011;9828;54.122;17.974;2022-11-12T21:01:13;11.13;;;8.40;;
19384;SDS011;9828;54.122;17.974;2022-11-12T21:06:54;9.40;;;7.03;;
19384;SDS011;9828;54.122;17.974;2022-11-12T21:12:38;10.07;;;7.03;;
19384;SDS011;9828;54.122;17.974;2022-11-12T21:18:18;8.33;;;6.30;;
19384;SDS011;9828;54.122;17.974;2022-11-12T21:23:58;12.63;;;8.00;;
19384;SDS011;9828;54.122;17.974;2022-11-12T21:29:41;23.77;;;11.30;;
19384;SDS011;9828;54.122;17.974;2022-11-12T21:35:21;21.57;;;12.60;;
19384;SDS011;9828;54.122;17.974;2022-11-12T21:41:02;18.30;;;10.60;;
19384;SDS011;9828;54.122;17.974;2022-11-12T21:46:46;15.00;;;9.53;;
19384;SDS011;9828;54.122;17.974;2022-11-12T21:52:26;15.40;;;8.33;;
19384;SDS011;9828;54.122;17.974;2022-11-12T21:58:06;16.70;;;9.03;;
19384;SDS011;9828;54.122;17.974;2022-11-12T22:03:50;16.80;;;9.73;;
19384;SDS011;9828;54.122;17.974;2022-11-12T22:09:30;15.10;;;9.67;;
19384;SDS011;9828;54.122;17.974;2022-11-12T22:15:10;25.97;;;14.60;;
19384;SDS011;9828;54.122;17.974;2022-11-12T22:20:57;22.97;;;13.30;;
19384;SDS011;9828;54.122;17.974;2022-11-12T22:26:42;15.30;;;10.77;;
19384;SDS011;9828;54.122;17.974;2022-11-12T22:32:22;13.33;;;9.87;;
19384;SDS011;9828;54.122;17.974;2022-11-12T22:38:02;15.57;;;9.70;;
19384;SDS011;9828;54.122;17.974;2022-11-12T22:43:45;22.50;;;13.13;;
19384;SDS011;9828;54.122;17.974;2022-11-12T22:49:29;20.07;;;11.07;;
19384;SDS011;9828;54.122;17.974;2022-11-12T22:55:09;14.33;;;9.13;;
19384;SDS011;9828;54.122;17.974;2022-11-12T23:00:49;13.40;;;10.43;;
19384;SDS011;9828;54.122;17.974;2022-11-12T23:06:30;16.37;;;10.07;;
19384;SDS011;9828;54.122;17.974;2022-11-12T23:12:10;12.73;;;9.77;;
19384;SDS011;9828;54.122;17.974;2022-11-12T23:17:50;10.77;;;8.27;;
19384;SDS011;9828;54.122;17.974;2022-11-12T23:23:30;8.97;;;7.37;;
19384;SDS011;9828;54.122;17.974;2022-11-12T23:29:11;9.60;;;7.80;;
19384;SDS011;9828;54.122;17.974;2022-11-12T23:34:51;11.90;;;8.13;;
19384;SDS011;9828;54.122;17.974;2022-11-12T23:40:31;10.93;;;8.27;;
19384;SDS011;9828;54.122;17.974;2022-11-12T23:46:11;11.50;;;9.13;;
19384;SDS011;9828;54.122;17.974;2022-11-12T23:51:51;13.37;;;8.23;;
19384;SDS011;9828;54.122;17.974;2022-11-12T23:57:31;9.33;;;7.60;;
